Time;durP1;ratioP1;P1;durP2;ratioP2;P2;SDS_P1;SDS_P2;PMS_P1;PMS_P2;Temp;Humidity;BMP_temperature;BMP_pressure;BME280_temperature;BME280_humidity;BME280_pressure;Samples;Min_cycle;Max_cycle;Signal;HPM_P1;HPM_P2
2021/07/16 00:02:25;;;;;;;13.38;3.12;;;;;;;20.79;74.09;99895.09;1690209;85;21312;-78
2021/07/16 00:05:30;;;;;;;9.48;3.20;;;;;;;20.79;74.17;99895.09;1691504;85;21295;-79
2021/07/16 00:08:36;;;;;;;10.25;3.40;;;;;;;20.76;74.13;99892.84;1691418;85;21220;-79
2021/07/16 00:11:42;;;;;;;7.00;2.70;;;;;;;20.76;74.09;99895.06;1689966;85;21267;-79
2021/07/16 00:14:48;;;;;;;10.65;3.22;;;;;;;20.76;74.30;99887.28;1692194;85;21219;-79
2021/07/16 00:17:53;;;;;;;16.32;3.30;;;;;;;20.77;74.24;99896.74;1690420;85;21260;-79
2021/07/16 00:21:01;;;;;;;11.38;3.83;;;;;;;20.77;74.33;99894.52;1690592;85;21349;-79
2021/07/16 00:24:07;;;;;;;10.72;3.50;;;;;;;20.77;73.00;99895.35;1690194;85;21331;-79
2021/07/16 00:27:12;;;;;;;6.12;3.40;;;;;;;20.81;73.09;99898.48;1691002;85;21406;-79
2021/07/16 00:30:19;;;;;;;11.90;3.30;;;;;;;20.81;71.93;99890.98;1691364;85;21224;-79
2021/07/16 00:33:25;;;;;;;13.48;3.27;;;;;;;20.84;72.56;99886.83;1691398;85;21367;-79
2021/07/16 00:36:30;;;;;;;4.25;3.02;;;;;;;20.88;71.33;99888.02;1691465;85;21370;-79
2021/07/16 00:39:37;;;;;;;11.12;3.20;;;;;;;20.95;69.18;99893.41;1692511;85;21299;-79
2021/07/16 00:42:43;;;;;;;12.10;3.22;;;;;;;21.01;67.80;99890.99;1691593;85;21354;-79
2021/07/16 00:45:49;;;;;;;8.60;2.92;;;;;;;21.09;66.37;99889.17;1690189;85;21869;-78
2021/07/16 00:48:55;;;;;;;11.97;2.92;;;;;;;21.16;68.18;99892.05;1691364;85;21900;-79
2021/07/16 00:52:01;;;;;;;21.20;3.80;;;;;;;21.18;66.32;99889.03;1691498;85;21203;-79
2021/07/16 00:55:07;;;;;;;10.20;3.15;;;;;;;21.20;65.49;99892.39;1690148;85;21271;-79
2021/07/16 00:58:13;;;;;;;12.10;3.10;;;;;;;21.24;65.39;99891.33;1690498;85;21369;-79
2021/07/16 01:01:19;;;;;;;17.77;3.55;;;;;;;21.22;67.81;99893.51;1690659;83;21881;-79
2021/07/16 01:04:25;;;;;;;14.18;3.00;;;;;;;21.09;66.02;99889.17;1691740;85;21255;-79
2021/07/16 01:07:31;;;;;;;17.10;3.77;;;;;;;21.08;65.43;99885.56;1690187;84;21243;-79
2021/07/16 01:10:38;;;;;;;7.92;2.85;;;;;;;21.10;65.99;99894.47;1690169;84;21200;-79
2021/07/16 01:13:44;;;;;;;13.18;3.17;;;;;;;21.04;66.17;99891.33;1690178;84;21216;-79
2021/07/16 01:16:51;;;;;;;12.85;3.30;;;;;;;20.99;66.06;99889.87;1691540;85;21204;-79
2021/07/16 01:20:04;;;;;;;9.83;3.85;;;;;;;20.97;66.18;99886.48;1691020;85;21940;-79
2021/07/16 01:23:29;;;;;;;12.53;3.70;;;;;;;20.96;66.65;99888.98;1688478;85;21248;-79
2021/07/16 01:26:36;;;;;;;17.80;4.67;;;;;;;20.93;67.43;99875.58;1691518;85;21334;-80
2021/07/16 01:29:43;;;;;;;10.63;4.05;;;;;;;20.87;68.10;99879.38;1691449;85;21857;-80
2021/07/16 01:32:48;;;;;;;13.22;4.03;;;;;;;20.80;68.73;99886.52;1692447;85;21802;-80
2021/07/16 01:35:54;;;;;;;12.23;4.45;;;;;;;20.74;69.40;99889.45;1690972;85;21350;-79
2021/07/16 01:38:58;;;;;;;14.55;4.53;;;;;;;20.67;69.95;99887.70;1690571;85;21342;-80
2021/07/16 01:42:04;;;;;;;12.70;4.67;;;;;;;20.64;70.28;99887.34;1691547;85;21853;-80
2021/07/16 01:45:13;;;;;;;11.05;4.42;;;;;;;20.62;70.46;99884.83;1691535;85;21346;-79
2021/07/16 01:48:22;;;;;;;20.75;6.17;;;;;;;20.63;70.62;99883.73;1691102;85;21260;-80
2021/07/16 01:51:27;;;;;;;13.58;4.67;;;;;;;20.67;70.58;99882.14;1691127;85;21406;-80
2021/07/16 01:54:33;;;;;;;10.58;4.30;;;;;;;20.73;70.47;99884.45;1692508;85;21282;-80
2021/07/16 01:57:37;;;;;;;21.68;5.30;;;;;;;20.79;70.06;99886.75;1692078;85;21189;-80
2021/07/16 02:00:52;;;;;;;14.63;4.47;;;;;;;20.85;69.66;99889.38;1691019;83;21378;-79
2021/07/16 02:04:00;;;;;;;15.03;5.37;;;;;;;20.90;69.46;99888.62;1691366;85;21382;-80
2021/07/16 02:07:06;;;;;;;9.70;4.60;;;;;;;20.93;70.04;99887.53;1690155;85;21315;-79
2021/07/16 02:10:13;;;;;;;16.12;5.22;;;;;;;20.93;70.03;99886.14;1690249;85;21224;-79
2021/07/16 02:13:19;;;;;;;11.08;4.97;;;;;;;20.96;70.06;99883.97;1690304;85;21386;-79
2021/07/16 02:16:26;;;;;;;14.68;5.92;;;;;;;20.99;69.91;99888.48;1690165;85;21363;-79
2021/07/16 02:19:32;;;;;;;11.12;5.03;;;;;;;21.04;69.74;99887.72;1691147;85;21765;-79
2021/07/16 02:22:37;;;;;;;11.90;5.05;;;;;;;21.09;69.78;99887.79;1691188;84;21739;-79
2021/07/16 02:25:42;;;;;;;11.18;4.90;;;;;;;21.16;69.38;99889.27;1691257;85;21334;-79
2021/07/16 02:28:47;;;;;;;15.10;5.58;;;;;;;21.26;69.07;99892.74;1690547;85;21256;-79
2021/07/16 02:31:53;;;;;;;15.05;5.28;;;;;;;21.37;68.71;99885.44;1690955;85;21363;-79
2021/07/16 02:35:00;;;;;;;13.90;4.85;;;;;;;21.49;68.85;99883.91;1690961;85;21810;-79
2021/07/16 02:38:09;;;;;;;8.15;4.40;;;;;;;21.59;69.30;99889.05;1691057;85;21779;-79
2021/07/16 02:41:14;;;;;;;10.20;4.10;;;;;;;21.66;69.55;99895.27;1691332;85;21861;-79
2021/07/16 02:44:19;;;;;;;15.88;4.75;;;;;;;21.70;69.61;99887.25;1689644;85;21203;-79
2021/07/16 02:47:25;;;;;;;9.08;4.30;;;;;;;21.72;70.24;99891.99;1689648;85;21755;-79
2021/07/16 02:50:33;;;;;;;8.25;3.72;;;;;;;21.77;70.59;99892.05;1689512;84;21288;-79
2021/07/16 02:53:39;;;;;;;9.35;3.72;;;;;;;21.84;70.13;99890.48;1691958;85;21298;-79
2021/07/16 02:56:44;;;;;;;13.85;4.95;;;;;;;21.87;69.88;99892.72;1690967;85;21319;-79
2021/07/16 02:59:50;;;;;;;12.10;3.90;;;;;;;21.93;69.93;99884.19;1690190;83;21326;-79
2021/07/16 03:02:56;;;;;;;15.05;3.70;;;;;;;22.11;69.58;99884.91;1690961;85;21323;-79
2021/07/16 03:06:03;;;;;;;15.65;3.60;;;;;;;22.33;69.10;99887.67;1691934;85;21850;-79
2021/07/16 03:09:09;;;;;;;11.60;4.15;;;;;;;22.54;68.54;99885.94;1691001;85;21355;-79
2021/07/16 03:12:15;;;;;;;7.67;4.00;;;;;;;22.79;68.15;99886.69;1690919;85;21374;-79
2021/07/16 03:15:27;;;;;;;8.33;3.87;;;;;;;23.06;67.46;99891.67;1689579;84;21220;-79
2021/07/16 03:18:33;;;;;;;10.35;4.17;;;;;;;23.33;66.24;99886.51;1689610;84;21211;-79
2021/07/16 03:21:40;;;;;;;13.38;3.35;;;;;;;23.54;65.62;99881.33;1690621;85;21347;-80
2021/07/16 03:24:45;;;;;;;9.48;3.70;;;;;;;23.77;65.28;99882.85;1688623;85;21334;-79
2021/07/16 03:27:50;;;;;;;11.73;3.77;;;;;;;23.99;65.26;99891.00;1691086;85;21351;-79
2021/07/16 03:30:56;;;;;;;10.38;4.65;;;;;;;24.20;64.72;99888.55;1689867;85;21984;-79
2021/07/16 03:34:01;;;;;;;12.58;4.33;;;;;;;24.44;64.75;99895.05;1689687;85;21205;-80
2021/07/16 03:37:07;;;;;;;12.15;4.10;;;;;;;24.69;64.61;99892.25;1690435;85;21338;-80
2021/07/16 03:40:15;;;;;;;14.45;4.17;;;;;;;24.93;63.97;99883.29;1690299;85;21330;-79
2021/07/16 03:43:20;;;;;;;10.63;4.45;;;;;;;25.20;62.45;99890.83;1690946;85;21359;-80
2021/07/16 03:46:27;;;;;;;14.50;4.30;;;;;;;25.47;61.87;99892.45;1691004;85;21374;-79
2021/07/16 03:49:35;;;;;;;22.62;4.42;;;;;;;25.72;60.97;99888.70;1690774;85;21409;-80
2021/07/16 03:52:40;;;;;;;17.20;4.40;;;;;;;25.93;60.75;99892.30;1690214;85;21635;-80
2021/07/16 03:55:46;;;;;;;7.03;4.00;;;;;;;26.14;60.14;99895.81;1691515;85;21330;-79
2021/07/16 03:58:51;;;;;;;13.03;4.90;;;;;;;26.30;60.65;99894.61;1689796;85;21315;-79
2021/07/16 04:01:57;;;;;;;12.18;4.55;;;;;;;26.36;61.24;99897.64;1689674;83;21357;-80
2021/07/16 04:05:03;;;;;;;10.80;4.58;;;;;;;26.48;60.86;99894.48;1689640;85;21330;-79
2021/07/16 04:08:15;;;;;;;12.68;4.65;;;;;;;26.61;60.26;99895.80;1690165;85;21283;-79
2021/07/16 04:11:18;;;;;;;10.70;4.50;;;;;;;26.72;60.38;99893.17;1689896;85;21342;-79
2021/07/16 04:14:25;;;;;;;13.85;4.75;;;;;;;26.86;60.53;99893.34;1690973;85;21746;-79
2021/07/16 04:17:33;;;;;;;13.80;4.25;;;;;;;26.97;60.64;99893.54;1690989;85;21839;-80
2021/07/16 04:20:39;;;;;;;11.90;4.87;;;;;;;27.07;60.23;99892.59;1690697;85;21322;-79
2021/07/16 04:23:45;;;;;;;10.35;4.55;;;;;;;27.18;59.88;99895.59;1691712;85;21208;-79
2021/07/16 04:26:50;;;;;;;10.82;4.55;;;;;;;27.30;59.66;99886.78;1691878;85;21339;-79
2021/07/16 04:29:56;;;;;;;14.73;4.95;;;;;;;27.41;59.86;99893.95;1691865;85;21283;-79
2021/07/16 04:33:02;;;;;;;8.58;5.10;;;;;;;27.58;58.75;99893.48;1689708;85;21318;-80
2021/07/16 04:36:08;;;;;;;11.73;4.30;;;;;;;27.80;58.11;99899.39;1690901;85;21358;-79
2021/07/16 04:39:12;;;;;;;12.55;4.62;;;;;;;28.05;57.52;99894.59;1689599;85;21224;-80
2021/07/16 04:42:17;;;;;;;12.45;4.45;;;;;;;28.24;55.81;99896.27;1690933;85;21319;-79
2021/07/16 04:45:24;;;;;;;13.80;4.55;;;;;;;28.46;55.34;99897.66;1689631;85;21314;-79
2021/07/16 04:48:29;;;;;;;11.33;4.33;;;;;;;28.66;55.58;99900.16;1689636;85;22480;-80
2021/07/16 04:51:37;;;;;;;11.65;3.87;;;;;;;28.87;54.40;99902.63;1690479;85;21902;-80
2021/07/16 04:54:41;;;;;;;11.88;4.12;;;;;;;29.21;53.11;99901.74;1689666;85;21220;-80
2021/07/16 04:57:49;;;;;;;11.97;4.40;;;;;;;29.39;52.87;99897.19;1690914;85;21200;-79
2021/07/16 05:00:56;;;;;;;6.00;3.80;;;;;;;29.39;52.87;99897.19;1689536;83;21263;-80
2021/07/16 05:04:02;;;;;;;7.30;4.30;;;;;;;29.54;52.11;99895.50;1690962;85;21323;-80
2021/07/16 05:07:09;;;;;;;8.15;3.05;;;;;;;29.71;51.49;99896.30;1689597;84;21216;-80
2021/07/16 05:10:16;;;;;;;9.60;2.92;;;;;;;29.89;48.55;99896.50;1689658;84;21797;-80
2021/07/16 05:13:22;;;;;;;4.87;2.58;;;;;;;30.03;46.58;99896.73;1689594;85;21252;-77
2021/07/16 05:16:28;;;;;;;9.00;3.67;;;;;;;30.17;46.14;99892.52;1689693;85;21897;-80
2021/07/16 05:19:34;;;;;;;8.93;2.58;;;;;;;30.31;46.48;99886.84;1689706;85;21216;-80
2021/07/16 05:22:39;;;;;;;10.70;2.60;;;;;;;30.47;46.34;99886.72;1689715;85;21212;-79
2021/07/16 05:25:46;;;;;;;6.50;2.80;;;;;;;30.70;45.51;99886.73;1690205;85;21338;-79
2021/07/16 05:28:51;;;;;;;10.88;3.27;;;;;;;30.89;45.38;99890.80;1690890;85;21204;-79
2021/07/16 05:31:58;;;;;;;12.50;2.55;;;;;;;30.97;44.19;99890.03;1691200;85;21243;-78
2021/07/16 05:35:03;;;;;;;10.35;2.27;;;;;;;31.05;42.88;99885.00;1690977;85;21318;-79
2021/07/16 05:38:10;;;;;;;3.95;1.80;;;;;;;31.22;42.38;99886.52;1689535;85;21215;-79
2021/07/16 05:41:16;;;;;;;7.47;1.60;;;;;;;31.38;41.42;99891.19;1684920;83;21701;-79
2021/07/16 05:44:21;;;;;;;5.87;2.02;;;;;;;31.46;41.50;99893.81;1707918;83;21894;-79
2021/07/16 05:47:28;;;;;;;13.18;2.45;;;;;;;31.60;40.70;99890.88;1717565;83;21212;-79
2021/07/16 05:50:35;;;;;;;14.38;2.83;;;;;;;31.75;41.82;99891.83;1724982;83;21341;-79
2021/07/16 05:53:42;;;;;;;6.92;2.50;;;;;;;31.84;41.81;99891.90;1711531;84;21241;-79
2021/07/16 05:56:50;;;;;;;10.40;2.60;;;;;;;31.92;41.69;99884.86;1710125;83;22379;-79
2021/07/16 05:59:49;;;;;;;11.53;2.90;;;;;;;32.04;43.39;99883.64;1710502;82;21355;-79
2021/07/16 06:02:56;;;;;;;11.70;2.70;;;;;;;32.17;43.77;99882.39;1700138;83;21121;-79
2021/07/16 06:06:03;;;;;;;9.25;2.70;;;;;;;32.33;43.31;99879.94;1705580;83;21173;-79
2021/07/16 06:09:08;;;;;;;13.10;2.95;;;;;;;32.43;42.47;99879.63;1711276;83;21383;-79
2021/07/16 06:12:16;;;;;;;8.93;2.40;;;;;;;32.55;42.50;99876.36;1711368;83;21228;-79
2021/07/16 06:15:20;;;;;;;11.48;2.60;;;;;;;32.64;42.79;99876.95;1710196;83;21286;-79
2021/07/16 06:18:25;;;;;;;9.53;2.80;;;;;;;32.69;42.09;99879.02;1707492;84;21890;-81
2021/07/16 06:21:30;;;;;;;5.97;2.60;;;;;;;32.79;40.33;99866.52;1714153;84;21281;-80
2021/07/16 06:24:35;;;;;;;12.10;2.17;;;;;;;32.90;40.34;99868.44;1713037;84;21309;-80
2021/07/16 06:27:40;;;;;;;10.30;2.80;;;;;;;32.97;39.75;99861.69;1715622;83;21222;-81
2021/07/16 06:30:46;;;;;;;9.18;2.87;;;;;;;33.06;38.52;99861.91;1713692;84;21218;-79
2021/07/16 06:33:51;;;;;;;6.80;2.42;;;;;;;33.15;39.10;99861.89;1711769;84;21724;-79
2021/07/16 06:36:56;;;;;;;6.10;2.10;;;;;;;33.21;38.73;99853.44;1715783;84;21217;-80
2021/07/16 06:40:02;;;;;;;11.83;3.55;;;;;;;33.29;38.98;99845.50;1711112;84;21823;-79
2021/07/16 06:43:10;;;;;;;15.75;3.22;;;;;;;33.29;38.48;99842.67;1711097;84;21253;-80
2021/07/16 06:46:16;;;;;;;8.73;2.62;;;;;;;33.29;37.74;99854.00;1712779;84;21309;-79
2021/07/16 06:49:26;;;;;;;10.48;2.60;;;;;;;33.32;38.63;99842.00;1715980;84;21322;-80
2021/07/16 06:52:31;;;;;;;13.68;2.80;;;;;;;33.32;37.75;99836.33;1713829;84;21194;-79
2021/07/16 06:55:35;;;;;;;10.88;3.20;;;;;;;33.38;38.93;99834.72;1711217;84;22516;-79
2021/07/16 06:58:41;;;;;;;9.00;3.40;;;;;;;33.44;38.88;99826.30;1711571;84;21344;-80
2021/07/16 07:01:47;;;;;;;10.53;3.35;;;;;;;33.57;38.77;99819.56;1710482;82;21368;-80
2021/07/16 07:04:53;;;;;;;17.40;3.20;;;;;;;33.69;38.73;99828.18;1711330;84;21864;-80
2021/07/16 07:08:00;;;;;;;5.55;2.70;;;;;;;33.75;36.82;99828.22;1712070;84;21663;-80
2021/07/16 07:11:04;;;;;;;5.35;2.72;;;;;;;33.90;38.34;99828.78;1711304;84;21977;-80
2021/07/16 07:14:12;;;;;;;11.08;4.22;;;;;;;33.94;39.04;99822.67;1706016;84;21785;-80
2021/07/16 07:17:17;;;;;;;13.22;3.15;;;;;;;33.99;37.81;99829.59;1711849;84;21317;-80
2021/07/16 07:20:22;;;;;;;10.78;3.60;;;;;;;34.09;36.78;99822.08;1711704;84;21187;-80
2021/07/16 07:23:28;;;;;;;13.78;4.42;;;;;;;34.15;37.58;99813.59;1711798;84;21171;-80
2021/07/16 07:26:35;;;;;;;8.18;2.80;;;;;;;34.19;38.71;99820.84;1710930;84;22319;-80
2021/07/16 07:29:40;;;;;;;11.50;3.47;;;;;;;34.24;37.94;99820.03;1711450;84;21930;-80
2021/07/16 07:32:46;;;;;;;13.25;3.60;;;;;;;34.24;38.29;99825.71;1683070;85;21313;-80
2021/07/16 07:35:51;;;;;;;14.50;3.90;;;;;;;34.15;37.67;99822.70;1684977;84;21732;-80
2021/07/16 07:38:58;;;;;;;12.28;3.90;;;;;;;34.11;36.48;99821.14;1684385;85;21338;-80
2021/07/16 07:42:04;;;;;;;11.38;4.10;;;;;;;34.20;36.50;99820.48;1683686;85;21280;-80
2021/07/16 07:45:09;;;;;;;12.20;3.90;;;;;;;34.32;37.64;99818.31;1682719;85;21807;-80
2021/07/16 07:48:15;;;;;;;12.45;3.67;;;;;;;34.40;37.23;99817.41;1711066;84;21289;-80
2021/07/16 07:51:14;;;;;;;9.73;3.22;;;;;;;34.47;35.90;99817.70;1711434;84;21831;-80
2021/07/16 07:54:21;;;;;;;8.98;3.45;;;;;;;34.51;35.06;99820.67;1697112;84;21347;-80
2021/07/16 07:57:26;;;;;;;14.35;3.67;;;;;;;34.52;36.00;99823.16;1711272;84;21297;-80
2021/07/16 08:00:33;;;;;;;14.55;3.98;;;;;;;34.51;35.60;99823.52;1711458;82;21276;-79
2021/07/16 08:03:39;;;;;;;21.80;4.10;;;;;;;34.46;36.77;99818.05;1711874;84;21232;-79
2021/07/16 08:06:44;;;;;;;9.73;4.25;;;;;;;34.48;37.47;99824.20;1712400;84;21919;-79
2021/07/16 08:09:50;;;;;;;13.22;4.08;;;;;;;34.44;35.06;99821.22;1712966;84;21280;-79
2021/07/16 08:12:56;;;;;;;8.75;4.03;;;;;;;34.41;35.00;99822.50;1711057;84;21284;-80
2021/07/16 08:16:02;;;;;;;10.72;4.47;;;;;;;34.45;34.60;99820.63;1711073;84;21291;-80
2021/07/16 08:19:09;;;;;;;16.07;4.45;;;;;;;34.45;35.39;99816.38;1725610;83;21309;-79
2021/07/16 08:22:16;;;;;;;13.88;4.45;;;;;;;34.42;34.33;99816.46;1711138;84;21309;-80
2021/07/16 08:25:21;;;;;;;16.05;4.85;;;;;;;34.44;34.77;99821.78;1717863;83;21312;-79
2021/07/16 08:28:29;;;;;;;10.30;4.55;;;;;;;34.50;35.14;99817.60;1719444;83;21831;-80
2021/07/16 08:31:34;;;;;;;14.18;3.95;;;;;;;34.51;33.39;99817.25;1676569;85;21816;-79
2021/07/16 08:34:40;;;;;;;13.85;4.47;;;;;;;34.48;31.02;99822.19;1677438;85;21346;-80
2021/07/16 08:37:45;;;;;;;8.68;4.50;;;;;;;34.42;33.63;99819.89;1677193;85;21307;-79
2021/07/16 08:40:53;;;;;;;12.18;4.70;;;;;;;34.50;34.58;99819.02;1673151;85;21855;-79
2021/07/16 08:43:59;;;;;;;14.50;4.20;;;;;;;34.57;34.86;99821.52;1674930;85;21251;-79
2021/07/16 08:47:05;;;;;;;17.62;4.50;;;;;;;34.62;34.46;99819.05;1692538;84;21199;-80
2021/07/16 08:50:13;;;;;;;16.07;4.35;;;;;;;34.61;34.72;99818.81;1668944;86;21293;-80
2021/07/16 08:53:19;;;;;;;20.62;4.15;;;;;;;34.57;32.70;99813.00;1677607;85;21196;-80
2021/07/16 08:56:23;;;;;;;16.62;3.45;;;;;;;34.60;30.64;99819.17;1674644;85;21303;-79
2021/07/16 08:59:29;;;;;;;18.10;4.10;;;;;;;34.60;31.66;99818.58;1672360;85;21832;-80
2021/07/16 09:02:35;;;;;;;19.90;4.15;;;;;;;34.62;31.68;99820.47;1687449;83;21165;-80
2021/07/16 09:05:50;;;;;;;11.63;3.62;;;;;;;34.61;32.64;99817.40;1666618;86;21310;-80
2021/07/16 09:08:55;;;;;;;11.57;3.27;;;;;;;34.58;34.13;99821.78;1693316;84;21847;-79
2021/07/16 09:12:03;;;;;;;10.10;3.52;;;;;;;34.54;34.62;99813.72;1663153;86;21906;-79
2021/07/16 09:15:17;;;;;;;12.68;3.15;;;;;;;34.51;33.57;99816.42;1674951;85;21748;-80
2021/07/16 09:18:32;;;;;;;21.80;3.42;;;;;;;34.49;32.19;99816.78;1692519;84;21522;-80
2021/07/16 09:21:37;;;;;;;16.55;3.30;;;;;;;34.48;32.29;99809.41;1667745;86;21307;-80
2021/07/16 09:24:48;;;;;;;18.87;3.35;;;;;;;34.51;34.08;99810.73;1674980;85;21357;-79
2021/07/16 09:27:54;;;;;;;13.70;3.75;;;;;;;34.47;32.94;99809.77;1673284;85;21359;-79
2021/07/16 09:31:00;;;;;;;10.40;4.25;;;;;;;34.51;33.66;99807.90;1686799;83;21370;-80
2021/07/16 09:34:07;;;;;;;14.15;4.12;;;;;;;34.56;33.31;99804.84;1698654;83;21290;-79
2021/07/16 09:37:17;;;;;;;13.40;4.03;;;;;;;34.55;33.61;99803.19;1698280;83;21314;-80
2021/07/16 09:40:51;;;;;;;14.13;4.53;;;;;;;34.51;33.04;99799.38;1700103;83;21200;-80
2021/07/16 09:44:01;;;;;;;15.50;4.03;;;;;;;34.47;33.99;99796.41;1695726;83;21196;-79
2021/07/16 09:47:24;;;;;;;12.10;4.22;;;;;;;34.46;35.28;99797.59;1704219;83;21200;-80
2021/07/16 09:50:34;;;;;;;14.95;4.08;;;;;;;34.46;33.82;99793.92;1702812;83;21283;-79
2021/07/16 09:53:42;;;;;;;8.45;3.20;;;;;;;34.46;33.35;99793.33;1692635;83;21366;-79
2021/07/16 09:56:49;;;;;;;11.95;3.40;;;;;;;34.49;33.02;99798.88;1672730;83;21275;-80
2021/07/16 09:59:56;;;;;;;18.90;7.37;;;;;;;34.43;33.04;99793.98;1702135;83;21197;-79
2021/07/16 10:03:06;;;;;;;11.45;4.05;;;;;;;34.41;34.52;99789.85;1704297;83;21339;-80
2021/07/16 10:06:16;;;;;;;7.15;2.50;;;;;;;34.46;33.71;99783.39;1709424;83;21862;-79
2021/07/16 10:09:22;;;;;;;10.90;2.85;;;;;;;34.50;31.88;99784.36;1701188;83;21807;-80
2021/07/16 10:12:26;;;;;;;14.55;2.45;;;;;;;34.45;31.30;99779.46;1716395;83;21276;-80
2021/07/16 10:15:48;;;;;;;13.03;2.90;;;;;;;34.48;31.99;99783.03;1710716;83;21177;-80
2021/07/16 10:18:53;;;;;;;19.15;2.65;;;;;;;34.43;29.76;99775.53;1685776;83;21309;-80
2021/07/16 10:21:59;;;;;;;6.70;2.37;;;;;;;34.38;30.93;99773.51;1707624;83;21590;-80
2021/07/16 10:25:07;;;;;;;11.70;2.87;;;;;;;34.30;29.55;99769.56;1707912;83;21236;-79
2021/07/16 10:28:12;;;;;;;9.53;2.27;;;;;;;34.29;31.79;99767.91;1703552;83;21291;-79
2021/07/16 10:31:55;;;;;;;14.58;2.42;;;;;;;34.31;32.90;99764.15;1708219;83;21200;-79
2021/07/16 10:35:06;;;;;;;13.30;2.40;;;;;;;34.31;31.17;99762.73;1650183;85;21299;-80
2021/07/16 10:38:32;;;;;;;7.60;2.52;;;;;;;34.32;30.29;99768.64;1616875;86;21383;-81
2021/07/16 10:41:41;;;;;;;6.42;2.05;;;;;;;34.22;29.32;99757.13;1651250;85;21322;-79
2021/07/16 10:44:58;;;;;;;11.12;2.33;;;;;;;34.18;29.62;99756.75;1637234;86;21275;-79
2021/07/16 10:48:07;;;;;;;9.18;2.45;;;;;;;34.14;28.85;99755.78;1656943;85;21928;-80
2021/07/16 10:51:13;;;;;;;;;;;;;;;34.09;28.50;99749.73;1646996;86;21328;-79
2021/07/16 10:54:12;;;;;;;14.83;2.70;;;;;;;34.08;28.87;99755.17;1644328;86;20283;-79
2021/07/16 10:57:21;;;;;;;10.68;2.67;;;;;;;34.05;30.09;99749.59;1618418;86;21921;-79
2021/07/16 11:00:49;;;;;;;8.55;2.37;;;;;;;34.03;29.03;99751.95;1657049;86;21360;-79
2021/07/16 11:03:56;;;;;;;6.17;2.58;;;;;;;33.93;29.34;99752.94;1664049;86;21773;-80
2021/07/16 11:07:11;;;;;;;6.72;2.25;;;;;;;33.87;28.72;99746.62;1671879;84;21211;-80
2021/07/16 11:10:16;;;;;;;5.47;2.02;;;;;;;33.87;29.45;99738.70;1674288;85;21398;-79
2021/07/16 11:13:52;;;;;;;7.70;2.20;;;;;;;33.90;30.68;99737.43;1681901;85;21196;-79
2021/07/16 11:17:02;;;;;;;12.82;2.17;;;;;;;33.90;31.88;99736.01;1684217;84;21210;-79
2021/07/16 11:20:18;;;;;;;7.62;2.50;;;;;;;33.94;29.81;99741.83;1643435;85;21354;-79
2021/07/16 11:23:24;;;;;;;18.65;2.77;;;;;;;33.98;31.71;99733.73;1648595;85;21334;-80
2021/07/16 11:26:36;;;;;;;8.53;2.30;;;;;;;34.02;32.28;99735.30;1647936;85;21354;-80
2021/07/16 11:29:46;;;;;;;11.50;2.60;;;;;;;34.07;33.19;99727.98;1653330;85;21326;-79
2021/07/16 11:32:52;;;;;;;12.47;2.40;;;;;;;34.16;33.45;99728.73;1656875;85;21185;-80
2021/07/16 11:36:01;;;;;;;11.65;2.90;;;;;;;34.18;32.95;99729.20;1660103;85;21227;-80
2021/07/16 11:39:09;;;;;;;7.08;2.58;;;;;;;34.13;32.23;99728.00;1642517;85;21326;-79
2021/07/16 11:42:15;;;;;;;7.37;2.30;;;;;;;34.03;32.16;99726.42;1660027;86;21333;-79
2021/07/16 11:45:31;;;;;;;11.57;2.70;;;;;;;33.97;31.68;99729.23;1652743;86;21216;-79
2021/07/16 11:48:37;;;;;;;11.85;2.70;;;;;;;34.02;32.10;99719.09;1665870;85;21920;-80
2021/07/16 11:51:42;;;;;;;8.38;2.45;;;;;;;34.11;32.54;99713.31;1631396;86;21857;-79
2021/07/16 11:54:51;;;;;;;18.23;2.70;;;;;;;34.17;33.46;99718.21;1647823;86;21351;-80
2021/07/16 11:58:05;;;;;;;8.25;2.45;;;;;;;34.20;31.95;99718.31;1647768;86;21344;-80
2021/07/16 12:01:16;;;;;;;7.72;2.30;;;;;;;34.20;32.43;99708.98;1648251;85;21890;-79
2021/07/16 12:04:29;;;;;;;13.35;3.00;;;;;;;34.18;31.23;99708.52;1631570;86;21210;-79
2021/07/16 12:07:48;;;;;;;9.70;2.72;;;;;;;34.16;31.00;99713.69;1654313;86;21798;-80
2021/07/16 12:10:54;;;;;;;17.77;3.02;;;;;;;34.19;32.23;99704.48;1651282;85;21330;-80
2021/07/16 12:14:08;;;;;;;9.30;2.12;;;;;;;34.19;32.28;99704.48;1663023;85;21183;-80
2021/07/16 12:17:13;;;;;;;12.07;2.50;;;;;;;34.21;32.92;99703.56;1659102;86;21361;-79
2021/07/16 12:20:20;;;;;;;18.98;2.60;;;;;;;34.15;30.60;99701.52;1629998;86;21229;-79
2021/07/16 12:23:25;;;;;;;7.72;2.25;;;;;;;34.07;32.31;99696.77;1655711;86;21371;-79
2021/07/16 12:26:25;;;;;;;14.90;2.30;;;;;;;34.04;33.27;99699.70;1638468;85;21205;-80
2021/07/16 12:29:35;;;;;;;9.58;2.30;;;;;;;34.04;33.46;99698.88;1631185;88;21339;-80
2021/07/16 12:32:53;;;;;;;6.95;2.12;;;;;;;34.04;32.25;99693.20;1630942;88;21743;-79
2021/07/16 12:35:59;;;;;;;17.32;2.80;;;;;;;33.97;31.13;99698.59;1636749;86;21330;-79
2021/07/16 12:39:04;;;;;;;6.35;2.05;;;;;;;33.88;31.92;99699.23;1653556;86;21350;-79
2021/07/16 12:42:25;;;;;;;12.58;2.02;;;;;;;33.80;32.22;99683.97;1696522;84;21845;-79
2021/07/16 12:45:29;;;;;;;10.05;1.90;;;;;;;33.70;30.41;99694.31;1620929;86;21394;-79
2021/07/16 12:48:37;;;;;;;4.55;2.20;;;;;;;33.60;30.42;99698.39;1673157;84;21343;-79
2021/07/16 12:51:46;;;;;;;13.03;1.82;;;;;;;33.53;30.63;99691.84;1644562;87;21776;-79
2021/07/16 12:54:51;;;;;;;;;;;;;;;33.50;31.90;99691.69;1670515;86;21358;-80
2021/07/16 12:58:11;;;;;;;9.73;2.27;;;;;;;33.52;32.21;99690.77;1666857;86;20306;-79
2021/07/16 13:01:16;;;;;;;9.35;2.20;;;;;;;33.53;33.25;99677.66;1643651;86;21880;-79
2021/07/16 13:04:22;;;;;;;14.35;1.95;;;;;;;33.50;32.67;99682.63;1668800;86;21366;-79
2021/07/16 13:07:34;;;;;;;7.85;1.95;;;;;;;33.43;30.77;99680.08;1644626;87;21298;-79
2021/07/16 13:10:41;;;;;;;8.25;2.10;;;;;;;33.38;30.50;99681.08;1635359;87;21206;-79
2021/07/16 13:13:47;;;;;;;7.72;2.20;;;;;;;33.39;31.71;99681.32;1607909;88;21285;-79
2021/07/16 13:16:52;;;;;;;9.93;2.52;;;;;;;33.38;29.89;99681.67;1625641;88;21351;-79
2021/07/16 13:20:03;;;;;;;5.53;1.85;;;;;;;33.35;30.85;99676.69;1624752;87;21417;-79
2021/07/16 13:23:08;;;;;;;8.63;2.33;;;;;;;33.29;31.09;99669.80;1626318;88;21921;-79
2021/07/16 13:26:14;;;;;;;10.30;1.90;;;;;;;33.25;30.43;99670.24;1626285;88;21362;-79
2021/07/16 13:29:21;;;;;;;6.08;2.17;;;;;;;33.24;30.84;99666.34;1625920;88;21366;-79
2021/07/16 13:32:26;;;;;;;6.53;2.20;;;;;;;33.27;32.30;99671.34;1625380;88;21952;-79
2021/07/16 13:35:33;;;;;;;7.62;2.20;;;;;;;33.25;31.11;99671.66;1625248;86;21263;-79
2021/07/16 13:38:38;;;;;;;5.25;1.95;;;;;;;33.24;31.02;99668.59;1624886;88;21876;-79
2021/07/16 13:41:44;;;;;;;6.65;2.35;;;;;;;33.19;32.20;99667.38;1625374;88;21362;-79
2021/07/16 13:44:50;;;;;;;5.17;2.00;;;;;;;33.17;31.57;99662.66;1640519;87;21362;-79
2021/07/16 13:47:56;;;;;;;6.20;1.92;;;;;;;33.18;32.73;99662.89;1640574;87;21374;-79
2021/07/16 13:51:02;;;;;;;8.58;3.05;;;;;;;33.19;32.90;99660.29;1639534;86;21362;-79
2021/07/16 13:54:11;;;;;;;15.13;1.90;;;;;;;33.17;33.36;99651.31;1640638;87;21342;-79
2021/07/16 13:57:20;;;;;;;11.68;2.45;;;;;;;33.13;33.80;99650.93;1641530;87;21306;-79
2021/07/16 14:00:24;;;;;;;7.97;2.70;;;;;;;33.12;32.66;99642.16;1647145;84;21291;-80
2021/07/16 14:03:30;;;;;;;12.65;2.20;;;;;;;33.10;32.48;99636.02;1643612;87;21936;-80
2021/07/16 14:06:37;;;;;;;10.23;2.20;;;;;;;33.06;33.22;99633.04;1671217;86;21303;-80
2021/07/16 14:09:42;;;;;;;14.13;2.90;;;;;;;33.03;32.43;99635.13;1671901;86;21370;-80
2021/07/16 14:12:48;;;;;;;13.75;2.33;;;;;;;33.05;32.63;99633.63;1672789;86;21336;-80
2021/07/16 14:15:54;;;;;;;5.95;2.08;;;;;;;33.08;32.47;99636.38;1671461;86;21232;-80
2021/07/16 14:19:00;;;;;;;10.08;2.45;;;;;;;33.06;32.15;99630.20;1642340;87;21904;-80
2021/07/16 14:22:06;;;;;;;9.30;2.33;;;;;;;33.04;32.35;99625.48;1642675;87;21309;-80
2021/07/16 14:25:18;;;;;;;14.28;3.10;;;;;;;33.02;32.16;99622.14;1642873;87;21207;-80
2021/07/16 14:28:22;;;;;;;15.90;2.40;;;;;;;33.00;32.07;99624.50;1641524;87;21210;-80
2021/07/16 14:31:28;;;;;;;12.15;2.50;;;;;;;32.99;32.36;99622.85;1642676;87;21848;-79
2021/07/16 14:34:34;;;;;;;15.05;3.00;;;;;;;32.99;31.89;99621.44;1643240;87;21223;-79
2021/07/16 14:37:39;;;;;;;8.45;2.58;;;;;;;32.98;32.28;99624.00;1641195;87;21366;-79